»·PEaware :: N65WP KLAX-KSAN

N65WP :: KLAX-KSAN

FLIGHT INFORMATION

Flight Status: Arrived
Operator: Privately registered:
United States
More flights under this callsign
Pilot: Byron W. (23270)
Aircraft: CESSNA 172 SKYHAWK
(C172)
More flights by this aircraft type
Origin: KLAX Los Angeles Intl
United States
Destination: KSAN San Diego Intl-Lindbergh
United States
More flights between these airports :: More routes between these airports
Route: +
File this flight plan on PilotEdge
Remarks:
Altitude:
(Current/Filed)
5,500ft
Speed:
(Current/Filed)
0kts
Departed: 07-Jan-20 06:42 PM
Arrived: 07-Jan-20 07:32 PM
Distance/Time
Traveled:
95nm/0:50
Distance/Time
To Go:
Arrived

Flight Plot

Page will automatically refresh every two minutes.


Map Options




Map Legend


Flown Route
Filed Route
Departure Airport
Arrival Airport
Navaid (VOR, NDB)
Fix

Horizontal Profiles

Position Reports

Time Latitude Longitude Heading Altitude Ground
Speed
07-Jan-20 18:24 33.933753 -118.394211 89 129ft 0kts
07-Jan-20 18:25 33.933753 -118.394211 89 129ft 0kts
07-Jan-20 18:26 33.933753 -118.394211 89 129ft 0kts
07-Jan-20 18:27 33.933753 -118.394211 89 129ft 0kts
07-Jan-20 18:28 33.933753 -118.394211 89 129ft 0kts
07-Jan-20 18:29 33.933753 -118.394211 89 129ft 0kts
07-Jan-20 18:30 33.933753 -118.394211 89 129ft 0kts
07-Jan-20 18:31 33.933753 -118.394211 89 129ft 0kts
07-Jan-20 18:32 33.933753 -118.394211 89 129ft 0kts
07-Jan-20 18:33 33.934288 -118.393989 18 129ft 4kts
07-Jan-20 18:34 33.935146 -118.392437 83 129ft 6kts
07-Jan-20 18:35 33.935395 -118.390016 83 129ft 10kts
07-Jan-20 18:36 33.935710 -118.386866 80 129ft 8kts
07-Jan-20 18:37 33.935927 -118.384722 84 129ft 2kts
07-Jan-20 18:38 33.936193 -118.382988 50 129ft 5kts
07-Jan-20 18:39 33.936409 -118.382820 6 129ft 0kts
07-Jan-20 18:40 33.936409 -118.382820 6 129ft 0kts
07-Jan-20 18:41 33.936826 -118.388213 264 160ft 73kts
07-Jan-20 18:42 33.934030 -118.412457 267 1225ft 73kts
07-Jan-20 18:43 33.926942 -118.430822 151 2159ft 88kts
07-Jan-20 18:44 33.907142 -118.412366 147 2875ft 110kts
07-Jan-20 18:46 33.878655 -118.388951 150 2630ft 131kts
07-Jan-20 18:47 33.850353 -118.366829 151 2832ft 114kts
07-Jan-20 18:48 33.821760 -118.344145 151 2998ft 131kts
07-Jan-20 18:49 33.791181 -118.319241 150 2995ft 134kts
07-Jan-20 18:50 33.760368 -118.293674 150 2997ft 134kts
07-Jan-20 18:51 33.729399 -118.268178 150 2995ft 135kts
07-Jan-20 18:52 33.698033 -118.242971 150 2997ft 135kts
07-Jan-20 18:53 33.666274 -118.218250 149 2994ft 136kts
07-Jan-20 18:54 33.634235 -118.193926 149 2993ft 136kts
07-Jan-20 18:55 33.602184 -118.170144 149 2992ft 135kts
07-Jan-20 18:56 33.570450 -118.145743 145 2994ft 135kts
07-Jan-20 18:57 33.541177 -118.117907 140 2995ft 134kts
07-Jan-20 18:58 33.513191 -118.088636 140 2994ft 132kts
07-Jan-20 18:59 33.486112 -118.058973 138 2995ft 131kts
07-Jan-20 19:00 33.460369 -118.028656 138 2996ft 129kts
07-Jan-20 19:01 33.435110 -117.998513 137 2997ft 127kts
07-Jan-20 19:02 33.410072 -117.968431 137 3001ft 128kts
07-Jan-20 19:03 33.384545 -117.937889 137 3004ft 130kts
07-Jan-20 19:04 33.358606 -117.907722 139 3122ft 124kts
07-Jan-20 19:05 33.332192 -117.882956 137 3472ft 122kts
07-Jan-20 19:05 33.310663 -117.858965 137 3510ft 131kts
07-Jan-20 19:07 33.280286 -117.823404 130 3509ft 130kts
07-Jan-20 19:07 33.261380 -117.795390 126 3509ft 129kts
07-Jan-20 19:09 33.235702 -117.755557 126 3510ft 129kts
07-Jan-20 19:09 33.217425 -117.727067 126 3510ft 129kts
07-Jan-20 19:10 33.195537 -117.692800 126 3513ft 129kts
07-Jan-20 19:12 33.172556 -117.650806 121 3519ft 129kts
07-Jan-20 19:12 33.156629 -117.620580 121 3519ft 130kts
07-Jan-20 19:13 33.137360 -117.583870 120 3518ft 130kts
07-Jan-20 19:14 33.118066 -117.547425 120 3517ft 129kts
07-Jan-20 19:15 33.098761 -117.511189 120 3515ft 127kts
07-Jan-20 19:16 33.080699 -117.475803 120 3513ft 124kts
07-Jan-20 19:17 33.063255 -117.440524 120 3512ft 123kts
07-Jan-20 19:18 33.046276 -117.404915 120 3510ft 123kts
07-Jan-20 19:19 33.029795 -117.369043 119 3509ft 124kts
07-Jan-20 19:20 33.006738 -117.339834 153 3520ft 121kts
07-Jan-20 19:21 32.975899 -117.322984 156 3522ft 122kts
07-Jan-20 19:22 32.944740 -117.306083 156 3523ft 123kts
07-Jan-20 19:23 32.913687 -117.289143 156 3526ft 123kts
07-Jan-20 19:24 32.882575 -117.272071 155 3529ft 123kts
07-Jan-20 19:25 32.851337 -117.254832 155 3532ft 123kts
07-Jan-20 19:26 32.820183 -117.237542 155 3513ft 125kts
07-Jan-20 19:27 32.789303 -117.220321 155 3527ft 118kts
07-Jan-20 19:28 32.758267 -117.204413 155 2445ft 124kts
07-Jan-20 19:29 32.741407 -117.173909 131 1026ft 89kts
07-Jan-20 19:30 32.730882 -117.178884 284 83ft 66kts
07-Jan-20 19:31 32.732751 -117.188467 209 21ft 9kts
07-Jan-20 19:32 32.732505 -117.188580 185 21ft 2kts
07-Jan-20 19:33 32.731765 -117.190814 202 21ft 6kts
07-Jan-20 19:34 32.731396 -117.190456 114 21ft 0kts

Navigation Log

Ident Type
Flight plan parsing failed, navigation log unavailable